createdAt,value
2023-05-05T05:25:34.551Z,35.77
2023-05-05T05:28:10.211Z,36.18
2023-05-05T05:30:42.629Z,35.92
2023-05-05T05:33:10.918Z,35.72
2023-05-05T05:35:38.835Z,35.55
2023-05-05T05:38:06.131Z,35.61
2023-05-05T05:40:33.275Z,35.66
2023-05-05T05:43:00.542Z,35.52
2023-05-05T05:45:27.802Z,35.42
2023-05-05T05:47:55.286Z,35.48
2023-05-05T05:50:22.921Z,35.47
2023-05-05T05:52:50.051Z,35.35
2023-05-05T05:55:17.303Z,35.17
2023-05-05T05:57:45.086Z,35.12
2023-05-05T06:00:13.664Z,35.04
2023-05-05T06:02:42.191Z,34.74
2023-05-05T06:05:13.313Z,34.56
2023-05-05T06:07:42.032Z,34.48
2023-05-05T06:10:25.760Z,34.50
2023-05-05T06:12:55.645Z,34.36
2023-05-05T06:15:23.370Z,34.06
2023-05-05T06:17:50.561Z,33.97
2023-05-05T06:20:17.771Z,34.08
2023-05-05T06:22:44.929Z,34.08
2023-05-05T06:25:12.324Z,33.78
2023-05-05T06:27:39.564Z,33.56
2023-05-05T06:30:07.925Z,33.55
2023-05-05T06:32:35.226Z,33.71
2023-05-05T06:35:02.639Z,33.83
2023-05-05T06:37:29.768Z,33.86
2023-05-05T06:39:57.016Z,33.75
2023-05-05T06:42:24.271Z,33.52
2023-05-05T06:44:52.274Z,33.28
2023-05-05T06:47:19.499Z,33.45
2023-05-05T06:49:46.952Z,33.56
2023-05-05T06:52:14.112Z,33.49
2023-05-05T06:54:41.176Z,33.34
2023-05-05T06:57:08.349Z,33.58
2023-05-05T06:59:35.329Z,34.13
2023-05-05T07:02:02.387Z,34.74
2023-05-05T07:04:29.872Z,35.35
2023-05-05T07:06:58.547Z,35.74
2023-05-05T07:09:25.863Z,35.63
2023-05-05T07:11:52.915Z,35.18
2023-05-05T07:14:21.521Z,34.63
2023-05-05T07:16:50.883Z,34.17
2023-05-05T07:19:18.194Z,33.79
2023-05-05T07:21:45.192Z,33.30
2023-05-05T07:24:12.281Z,33.02
2023-05-05T07:26:39.434Z,32.95
2023-05-05T07:29:07.317Z,33.15
2023-05-05T07:31:34.408Z,33.53
2023-05-05T07:34:01.649Z,34.10
2023-05-05T07:36:28.948Z,34.65
2023-05-05T07:38:56.027Z,35.09
2023-05-05T07:41:23.268Z,35.54
2023-05-05T07:43:50.600Z,35.76
2023-05-05T07:46:18.374Z,35.95
2023-05-05T07:48:46.365Z,36.20
2023-05-05T07:51:13.489Z,36.27
2023-05-05T07:53:41.278Z,36.08
2023-05-05T07:56:09.219Z,35.87
2023-05-05T07:58:36.625Z,35.23
2023-05-05T08:01:06.565Z,34.26
2023-05-05T08:03:34.021Z,33.61
2023-05-05T08:06:06.759Z,33.50
2023-05-05T08:08:33.989Z,33.73
2023-05-05T08:11:01.669Z,33.97
2023-05-05T08:13:30.331Z,33.89
2023-05-05T08:15:57.580Z,33.53
2023-05-05T08:18:24.888Z,33.18
2023-05-05T08:20:53.051Z,33.36
2023-05-05T08:23:20.176Z,33.91
2023-05-05T08:25:47.305Z,34.52
2023-05-05T08:28:14.354Z,34.99
2023-05-05T08:30:42.074Z,35.10
2023-05-05T08:33:09.198Z,35.22
2023-05-05T08:35:36.200Z,35.00
2023-05-05T08:38:03.379Z,34.56
2023-05-05T08:40:33.962Z,34.29
2023-05-05T08:43:01.674Z,34.22
2023-05-05T08:45:31.903Z,34.35
2023-05-05T08:48:04.106Z,34.65
2023-05-05T08:50:31.603Z,34.87
2023-05-05T08:53:12.173Z,34.80
2023-05-05T08:55:42.176Z,34.64
2023-05-05T08:58:09.232Z,34.59
2023-05-05T09:00:36.274Z,34.79
2023-05-05T09:03:03.580Z,34.99
2023-05-05T09:05:30.779Z,35.11
2023-05-05T09:07:57.833Z,35.34
2023-05-05T09:10:25.895Z,35.50
2023-05-05T09:12:53.547Z,35.40
2023-05-05T09:15:20.697Z,35.10
2023-05-05T09:17:47.827Z,34.97
2023-05-05T09:20:15.115Z,34.92
2023-05-05T09:22:44.117Z,34.97
2023-05-05T09:25:15.383Z,35.17
2023-05-05T09:27:47.046Z,35.41
2023-05-05T09:30:18.807Z,35.59
2023-05-05T09:32:50.485Z,35.67
2023-05-05T09:35:18.395Z,35.54
2023-05-05T09:37:45.832Z,35.31
2023-05-05T09:40:19.097Z,35.20
2023-05-05T09:42:46.506Z,35.30
2023-05-05T09:45:20.174Z,35.43
2023-05-05T09:47:47.905Z,35.62
2023-05-05T09:50:21.575Z,35.80
2023-05-05T09:52:59.745Z,35.50
2023-05-05T09:55:26.928Z,35.14
2023-05-05T09:57:54.092Z,34.90
2023-05-05T10:00:21.447Z,34.92
2023-05-05T10:02:48.541Z,35.13
2023-05-05T10:05:17.234Z,35.07
2023-05-05T10:07:45.749Z,34.80
2023-05-05T10:10:17.251Z,34.69
2023-05-05T10:12:46.402Z,34.62
2023-05-05T10:15:14.188Z,34.45
2023-05-05T10:18:02.807Z,34.27
2023-05-05T10:20:33.755Z,34.05
2023-05-05T10:23:00.903Z,34.12
2023-05-05T10:25:31.223Z,34.26
2023-05-05T10:27:59.915Z,34.24
2023-05-05T10:30:35.186Z,34.08
2023-05-05T10:35:53.147Z,32.55
2023-05-05T10:38:20.443Z,31.58
2023-05-05T10:40:48.747Z,31.05
2023-05-05T10:43:16.032Z,30.62
2023-05-05T10:45:43.340Z,30.26
2023-05-05T10:48:13.609Z,30.15
2023-05-05T10:50:47.835Z,30.27
2023-05-05T10:53:27.026Z,30.47
2023-05-05T10:56:03.696Z,30.72
2023-05-05T10:58:51.088Z,31.05
2023-05-05T11:01:30.399Z,31.58
2023-05-05T11:04:18.218Z,32.18
2023-05-05T11:07:13.714Z,32.50
2023-05-05T11:09:58.365Z,32.48
2023-05-05T11:12:25.617Z,32.35
2023-05-05T11:15:24.325Z,32.12
2023-05-05T11:17:51.519Z,32.10
2023-05-05T11:20:37.481Z,32.26
2023-05-05T11:23:05.159Z,32.36
2023-05-05T11:25:36.762Z,32.36
2023-05-05T11:28:08.829Z,32.40
2023-05-05T11:30:36.802Z,32.45
2023-05-05T11:33:39.683Z,32.57
2023-05-05T11:36:07.922Z,32.75
2023-05-05T11:39:00.553Z,32.81
2023-05-05T11:41:30.830Z,32.65
2023-05-05T11:44:13.947Z,32.54
2023-05-05T11:49:46.613Z,32.08
2023-05-05T11:52:14.567Z,32.00
2023-05-05T11:57:33.396Z,31.45
2023-05-05T12:00:08.435Z,31.25
2023-05-05T12:02:36.225Z,31.35
2023-05-05T12:05:03.554Z,31.49
2023-05-05T12:07:32.078Z,31.59
2023-05-05T12:09:59.432Z,31.47
2023-05-05T12:12:37.268Z,31.24
2023-05-05T12:15:05.471Z,30.94
2023-05-05T12:17:45.023Z,30.60
2023-05-05T12:20:12.905Z,30.33
2023-05-05T12:22:40.619Z,30.03
2023-05-05T12:25:08.240Z,29.75
2023-05-05T12:27:35.601Z,29.61
2023-05-05T12:30:16.757Z,29.59
2023-05-05T12:32:44.309Z,29.58
2023-05-05T12:35:11.663Z,29.60
2023-05-05T12:37:38.796Z,29.61
2023-05-05T12:40:07.410Z,29.62
2023-05-05T12:42:41.257Z,29.51
2023-05-05T12:45:17.517Z,29.14
2023-05-05T12:47:45.184Z,28.93
2023-05-05T12:50:12.476Z,28.90
2023-05-05T12:52:44.141Z,28.90
2023-05-05T12:55:11.647Z,28.99
2023-05-05T12:57:39.599Z,29.15
2023-05-05T13:00:16.862Z,29.23
2023-05-05T13:02:44.558Z,29.24
2023-05-05T13:05:12.375Z,29.16
2023-05-05T13:07:52.322Z,28.99
2023-05-05T13:10:19.482Z,28.79
2023-05-05T13:12:46.536Z,28.63
2023-05-05T13:15:13.995Z,28.45
2023-05-05T13:17:41.237Z,28.25
2023-05-05T13:20:10.874Z,28.05
2023-05-05T13:22:38.254Z,27.88
2023-05-05T13:25:05.908Z,27.66
2023-05-05T13:30:15.275Z,27.29
2023-05-05T13:32:42.498Z,27.23
2023-05-05T13:35:10.394Z,27.21
2023-05-05T13:37:37.997Z,27.17
2023-05-05T13:40:05.929Z,27.07
2023-05-05T13:42:33.033Z,26.99
2023-05-05T13:45:00.180Z,27.00
2023-05-05T13:47:27.323Z,27.02
2023-05-05T13:49:54.397Z,26.94
2023-05-05T13:52:21.500Z,26.83
2023-05-05T13:54:48.664Z,26.74
2023-05-05T13:57:15.693Z,26.68
2023-05-05T13:59:42.841Z,26.56
2023-05-05T14:02:09.952Z,26.42
2023-05-05T14:07:21.697Z,26.25
2023-05-05T14:09:48.752Z,26.19
2023-05-05T14:12:15.850Z,26.18
2023-05-05T14:14:43.052Z,26.25
2023-05-05T14:17:10.226Z,26.28
2023-05-05T14:19:37.255Z,26.25
2023-05-05T14:22:04.495Z,26.15
2023-05-05T14:24:31.571Z,26.08
2023-05-05T14:26:58.690Z,26.05
2023-05-05T14:29:25.740Z,26.04
2023-05-05T14:31:52.997Z,26.03
2023-05-05T14:34:20.341Z,26.00
2023-05-05T14:36:47.504Z,25.95
2023-05-05T14:39:14.560Z,25.88
2023-05-05T14:41:41.536Z,25.83
2023-05-05T14:44:08.637Z,25.78
2023-05-05T14:46:35.793Z,25.75
2023-05-05T14:49:02.859Z,25.73
2023-05-05T14:51:30.190Z,25.73
2023-05-05T14:53:57.348Z,25.74
2023-05-05T14:56:26.765Z,25.76
2023-05-05T14:58:54.306Z,25.74
2023-05-05T15:01:21.474Z,25.67
2023-05-05T15:03:48.549Z,25.61
2023-05-05T15:06:16.696Z,25.53
2023-05-05T15:08:43.731Z,25.41
2023-05-05T15:11:10.770Z,25.33
2023-05-05T15:13:41.777Z,25.25
2023-05-05T15:16:08.880Z,25.15
2023-05-05T15:18:36.580Z,25.04
2023-05-05T15:21:04.798Z,24.91
2023-05-05T15:23:31.873Z,24.78
2023-05-05T15:25:59.007Z,24.64
2023-05-05T15:28:26.135Z,24.49
2023-05-05T15:30:53.399Z,24.31
2023-05-05T15:33:20.449Z,24.14
2023-05-05T15:35:47.595Z,23.98
2023-05-05T15:38:14.670Z,23.80
2023-05-05T15:40:41.698Z,23.62
2023-05-05T15:43:08.839Z,23.45
2023-05-05T15:45:36.399Z,23.28
2023-05-05T15:48:04.273Z,23.09
2023-05-05T15:50:32.127Z,22.89
2023-05-05T15:52:59.285Z,22.68
2023-05-05T15:55:26.653Z,22.45
2023-05-05T15:57:54.301Z,22.26
2023-05-05T16:00:21.835Z,22.08
2023-05-05T16:02:49.155Z,21.90
2023-05-05T16:05:16.363Z,21.75
2023-05-05T16:07:43.855Z,21.60
2023-05-05T16:10:10.989Z,21.44
2023-05-05T16:12:38.561Z,21.29
2023-05-05T16:15:06.737Z,21.14
2023-05-05T16:17:34.077Z,21.00
2023-05-05T16:20:01.463Z,20.87
2023-05-05T16:22:28.763Z,20.75
2023-05-05T16:24:55.837Z,20.65
2023-05-05T16:27:22.967Z,20.56
2023-05-05T16:29:50.236Z,20.48
2023-05-05T16:32:17.466Z,20.40
2023-05-05T16:34:44.728Z,20.33
2023-05-05T16:37:12.785Z,20.26
2023-05-05T16:39:40.477Z,20.18
2023-05-05T16:42:07.755Z,20.10
2023-05-05T16:44:34.838Z,20.05
2023-05-05T16:47:01.958Z,19.99
2023-05-05T16:49:29.156Z,19.93
2023-05-05T16:51:57.391Z,19.86
2023-05-05T16:54:24.581Z,19.81
2023-05-05T16:56:52.615Z,19.76
2023-05-05T16:59:19.807Z,19.72
2023-05-05T17:01:47.177Z,19.68
2023-05-05T17:04:14.421Z,19.65
2023-05-05T17:06:41.457Z,19.60
2023-05-05T17:09:08.712Z,19.56
2023-05-05T17:11:36.375Z,19.54
2023-05-05T17:14:03.883Z,19.51
2023-05-05T17:16:31.365Z,19.47
2023-05-05T17:18:58.612Z,19.44
2023-05-05T17:21:25.695Z,19.41
2023-05-05T17:23:52.733Z,19.36
2023-05-05T17:26:19.984Z,19.27
2023-05-05T17:28:47.210Z,19.18
2023-05-05T17:31:14.428Z,19.10
2023-05-05T17:33:41.584Z,19.02
2023-05-05T17:36:09.175Z,18.96
2023-05-05T17:38:36.565Z,18.88
2023-05-05T17:41:03.718Z,18.82
2023-05-05T17:43:30.854Z,18.78
2023-05-05T17:45:57.924Z,18.74
2023-05-05T17:48:26.442Z,18.67
2023-05-05T17:50:53.938Z,18.63
2023-05-05T17:53:21.755Z,18.59
2023-05-05T17:55:48.885Z,18.56
2023-05-05T17:58:16.059Z,18.55
2023-05-05T18:00:43.160Z,18.56
2023-05-05T18:03:10.382Z,18.56
2023-05-05T18:05:37.563Z,18.56
2023-05-05T18:08:04.750Z,18.56
2023-05-05T18:10:32.607Z,18.54
2023-05-05T18:12:59.667Z,18.53
2023-05-05T18:15:26.782Z,18.51
2023-05-05T18:17:54.359Z,18.50
2023-05-05T18:20:21.551Z,18.51
2023-05-05T18:22:48.706Z,18.51
2023-05-05T18:25:15.900Z,18.50
2023-05-05T18:27:44.088Z,18.48
2023-05-05T18:30:11.832Z,18.46
2023-05-05T18:32:39.212Z,18.44
2023-05-05T18:35:07.391Z,18.42
2023-05-05T18:37:34.724Z,18.40
2023-05-05T18:40:01.800Z,18.37
2023-05-05T18:42:28.835Z,18.34
2023-05-05T18:44:55.772Z,18.29
2023-05-05T18:47:23.928Z,18.19
2023-05-05T18:49:51.486Z,18.05
2023-05-05T18:52:18.535Z,17.87
2023-05-05T18:54:45.678Z,17.68
2023-05-05T18:57:12.867Z,17.49
2023-05-05T18:59:40.108Z,17.27
2023-05-05T19:02:08.184Z,17.08
2023-05-05T19:04:38.103Z,16.90
2023-05-05T19:07:05.957Z,16.73
2023-05-05T19:09:33.200Z,16.57
2023-05-05T19:12:00.270Z,16.42
2023-05-05T19:14:27.609Z,16.26
2023-05-05T19:16:56.127Z,16.13
2023-05-05T19:19:23.531Z,15.98
2023-05-05T19:21:50.802Z,15.85
2023-05-05T19:24:17.958Z,15.72
2023-05-05T19:26:45.087Z,15.60
2023-05-05T19:29:12.844Z,15.50
2023-05-05T19:31:40.033Z,15.40
2023-05-05T19:34:07.293Z,15.30
2023-05-05T19:36:34.742Z,15.20
2023-05-05T19:39:02.877Z,15.11
2023-05-05T19:41:31.182Z,15.02
2023-05-05T19:43:58.405Z,14.93
2023-05-05T19:46:28.474Z,14.85
2023-05-05T19:48:55.926Z,14.78
2023-05-05T19:51:23.165Z,14.69
2023-05-05T19:53:51.003Z,14.62
2023-05-05T19:56:18.148Z,14.56
2023-05-05T19:58:56.155Z,14.51
2023-05-05T20:01:23.581Z,14.48
2023-05-05T20:03:51.288Z,14.49
2023-05-05T20:06:18.525Z,14.50
2023-05-05T20:08:45.539Z,14.52
2023-05-05T20:11:17.008Z,14.53
2023-05-05T20:13:44.177Z,14.53
2023-05-05T20:16:11.937Z,14.53
2023-05-05T20:18:39.822Z,14.52
2023-05-05T20:21:07.310Z,14.49
2023-05-05T20:23:34.623Z,14.49
2023-05-05T20:26:01.912Z,14.46
2023-05-05T20:28:30.076Z,14.45
2023-05-05T20:30:57.280Z,14.46
2023-05-05T20:33:24.554Z,14.46
2023-05-05T20:35:51.728Z,14.46
2023-05-05T20:38:18.954Z,14.45
2023-05-05T20:40:46.322Z,14.43
2023-05-05T20:43:13.483Z,14.39
2023-05-05T20:45:40.687Z,14.38
2023-05-05T20:48:10.081Z,14.37
2023-05-05T20:50:38.757Z,14.37
2023-05-05T20:53:07.900Z,14.35
2023-05-05T20:55:35.483Z,14.33
2023-05-05T20:58:03.509Z,14.30
2023-05-05T21:00:30.577Z,14.24
2023-05-05T21:02:57.566Z,14.20
2023-05-05T21:05:24.699Z,14.17
2023-05-05T21:07:53.349Z,14.13
2023-05-05T21:10:20.561Z,14.09
2023-05-05T21:12:47.650Z,14.08
2023-05-05T21:15:16.744Z,14.08
2023-05-05T21:17:43.947Z,14.09
2023-05-05T21:20:11.657Z,14.09
2023-05-05T21:22:39.026Z,14.10
2023-05-05T21:25:15.928Z,14.08
2023-05-05T21:27:43.083Z,14.06
2023-05-05T21:30:11.426Z,14.03
2023-05-05T21:32:39.389Z,14.02
2023-05-05T21:35:07.206Z,13.97
2023-05-05T21:37:34.227Z,13.94
2023-05-05T21:40:01.280Z,13.90
2023-05-05T21:42:30.164Z,13.85
2023-05-05T21:44:57.089Z,13.76
2023-05-05T21:47:24.138Z,13.73
2023-05-05T21:49:51.133Z,13.68
2023-05-05T21:52:18.130Z,13.65
2023-05-05T21:54:45.519Z,13.62
2023-05-05T21:57:12.467Z,13.58
2023-05-05T21:59:39.428Z,13.54
2023-05-05T22:02:06.443Z,13.49
2023-05-05T22:04:33.433Z,13.44
2023-05-05T22:07:00.437Z,13.38
2023-05-05T22:09:27.436Z,13.32
2023-05-05T22:11:54.483Z,13.27
2023-05-05T22:14:21.721Z,13.23
2023-05-05T22:16:48.745Z,13.15
2023-05-05T22:19:15.928Z,13.08
2023-05-05T22:21:42.994Z,13.02
2023-05-05T22:24:10.057Z,12.99
2023-05-05T22:26:39.896Z,12.95
2023-05-05T22:29:06.864Z,12.90
2023-05-05T22:31:33.904Z,12.88
2023-05-05T22:34:01.053Z,12.82
2023-05-05T22:36:28.018Z,12.76
2023-05-05T22:38:55.187Z,12.73
2023-05-05T22:41:22.243Z,12.69
2023-05-05T22:43:49.467Z,12.70
2023-05-05T22:46:16.493Z,12.66
2023-05-05T22:48:43.530Z,12.62
2023-05-05T22:51:11.340Z,12.59
2023-05-05T22:53:38.942Z,12.55
2023-05-05T22:56:06.428Z,12.48
2023-05-05T22:58:33.484Z,12.41
2023-05-05T23:01:00.567Z,12.36
2023-05-05T23:03:27.588Z,12.32
2023-05-05T23:05:54.546Z,12.28
2023-05-05T23:08:21.870Z,12.20
2023-05-05T23:10:48.820Z,12.14
2023-05-05T23:13:15.990Z,12.10
2023-05-05T23:15:43.768Z,12.04
2023-05-05T23:18:11.098Z,11.99
2023-05-05T23:20:38.076Z,11.96
2023-05-05T23:23:05.097Z,11.90
2023-05-05T23:25:32.064Z,11.85
2023-05-05T23:27:59.059Z,11.82
2023-05-05T23:30:26.117Z,11.78
2023-05-05T23:32:53.199Z,11.73
2023-05-05T23:35:20.321Z,11.69
2023-05-05T23:37:47.352Z,11.66
2023-05-05T23:40:14.349Z,11.66
2023-05-05T23:42:41.318Z,11.61
2023-05-05T23:45:09.337Z,11.56
2023-05-05T23:47:36.568Z,11.50
2023-05-05T23:50:03.787Z,11.45
2023-05-05T23:52:30.837Z,11.41
2023-05-05T23:54:57.838Z,11.38
2023-05-05T23:57:24.820Z,11.35
2023-05-05T23:59:51.859Z,11.33
